Wetterdaten: Woche 25.07.16 - 31.07.16 (KW30)
Datum Zeit Temp. Aussen Temp. o. S. +5cm Feuchte Auss BlattFeu 1 Luftdruck Regen Sonnenschein Regendauer Solar Windben Empfang
25.07.2016 00:00 21,0 C 19,6 C 18,0 C 86 % 1 lf 1017,8 hPa 0,0 l/m 0,00 h 0,00 h 5 W/m 0,7 km/h (0 Bft) 97,79 %
25.07.2016 01:00 20,3 C 18,9 C 17,6 C 88 % 1 lf 1017,9 hPa 0,0 l/m 0,00 h 0,00 h 5 W/m 2,7 km/h (1 Bft) 95,44 %
25.07.2016 02:00 19,7 C 19,1 C 17,7 C 89 % 1 lf 1017,8 hPa 0,0 l/m 0,00 h 0,00 h 0 W/m 2,2 km/h (1 Bft) 95,36 %
25.07.2016 03:00 19,4 C 18,5 C 17,1 C 90 % 1 lf 1017,9 hPa 0,0 l/m 0,00 h 0,00 h 0 W/m 4,9 km/h (1 Bft) 98,53 %
25.07.2016 04:00 18,8 C 17,8 C 16,7 C 91 % 1 lf 1017,8 hPa 0,0 l/m 0,00 h 0,00 h 0 W/m 3,3 km/h (1 Bft) 96,18 %
25.07.2016 05:00 18,3 C 17,6 C 16,3 C 92 % 1 lf 1017,9 hPa 0,0 l/m 0,00 h 0,00 h 9 W/m 3,6 km/h (1 Bft) 94,87 %
25.07.2016 06:00 17,9 C 17,6 C 16,4 C 93 % 1 lf 1018,0 hPa 0,0 l/m 0,73 h 0,00 h 42 W/m 3,8 km/h (1 Bft) 98,22 %
25.07.2016 07:00 18,3 C 19,6 C 18,2 C 94 % 0 lf 1018,2 hPa 0,0 l/m 0,60 h 0,00 h 119 W/m 8,5 km/h (2 Bft) 95,52 %
25.07.2016 08:00 19,2 C 23,0 C 19,3 C 90 % 0 lf 1018,4 hPa 0,0 l/m 0,73 h 0,00 h 294 W/m 10,8 km/h (2 Bft) 95,87 %
25.07.2016 09:00 21,6 C 27,5 C 22,0 C 82 % 0 lf 1018,5 hPa 0,0 l/m 1,00 h 0,00 h 463 W/m 13,7 km/h (3 Bft) 96,02 %
25.07.2016 10:00 23,6 C 27,9 C 26,0 C 77 % 0 lf 1018,5 hPa 0,0 l/m 0,90 h 0,00 h 478 W/m 16,0 km/h (3 Bft) 96,94 %
25.07.2016 11:00 23,9 C 29,1 C 26,7 C 76 % 0 lf 1018,5 hPa 0,0 l/m 1,00 h 0,00 h 516 W/m 13,2 km/h (3 Bft) 95,86 %
25.07.2016 12:00 26,0 C 31,5 C 29,8 C 70 % 0 lf 1018,1 hPa 0,0 l/m 1,00 h 0,00 h 1003 W/m 15,5 km/h (3 Bft) 94,53 %
25.07.2016 13:00 26,7 C 31,1 C 29,3 C 67 % 0 lf 1018,0 hPa 0,0 l/m 1,00 h 0,00 h 1154 W/m 19,0 km/h (3 Bft) 98,29 %
25.07.2016 14:00 26,8 C 29,4 C 28,1 C 67 % 0 lf 1017,9 hPa 0,0 l/m 0,50 h 0,03 h 645 W/m 18,0 km/h (3 Bft) 95,65 %
25.07.2016 15:00 26,1 C 29,2 C 29,2 C 70 % 0 lf 1017,9 hPa 0,0 l/m 0,73 h 0,00 h 446 W/m 17,4 km/h (3 Bft) 95,23 %
25.07.2016 16:00 27,0 C 30,5 C 30,5 C 68 % 0 lf 1017,7 hPa 0,0 l/m 0,80 h 0,00 h 440 W/m 15,8 km/h (3 Bft) 97,37 %
25.07.2016 17:00 26,8 C 28,9 C 27,7 C 68 % 0 lf 1017,6 hPa 0,0 l/m 0,70 h 0,00 h 316 W/m 14,6 km/h (3 Bft) 95,16 %
25.07.2016 18:00 26,2 C 27,3 C 26,2 C 68 % 0 lf 1017,6 hPa 0,0 l/m 0,20 h 0,00 h 178 W/m 12,1 km/h (2 Bft) 96,30 %
25.07.2016 19:00 25,4 C 25,3 C 23,9 C 71 % 0 lf 1017,7 hPa 0,0 l/m 0,00 h 0,03 h 70 W/m 9,4 km/h (2 Bft) 97,22 %
25.07.2016 20:00 24,5 C 24,1 C 22,8 C 74 % 0 lf 1018,0 hPa 0,0 l/m 0,40 h 0,03 h 65 W/m 9,6 km/h (2 Bft) 95,44 %
25.07.2016 21:00 23,5 C 22,1 C 20,4 C 77 % 0 lf 1018,3 hPa 0,0 l/m 0,17 h 0,00 h 16 W/m 3,1 km/h (1 Bft) 97,08 %
25.07.2016 22:00 22,1 C 20,3 C 18,9 C 82 % 0 lf 1018,7 hPa 0,0 l/m 0,00 h 0,00 h 0 W/m 3,1 km/h (1 Bft) 94,51 %
25.07.2016 23:00 20,9 C 20,2 C 19,0 C 85 % 0 lf 1019,0 hPa 0,0 l/m 0,00 h 0,00 h 0 W/m 11,3 km/h (2 Bft) 97,01 %
26.07.2016 00:00 19,8 C 18,6 C 17,4 C 85 % 0 lf 1019,3 hPa 0,0 l/m 0,00 h 0,00 h 0 W/m 7,6 km/h (2 Bft) 93,88 %
26.07.2016 01:00 19,0 C 18,3 C 17,2 C 86 % 0 lf 1019,4 hPa 0,0 l/m 0,00 h 0,00 h 5 W/m 5,3 km/h (1 Bft) 95,80 %
26.07.2016 02:00 18,6 C 17,6 C 16,3 C 86 % 0 lf 1019,4 hPa 0,0 l/m 0,00 h 0,00 h 5 W/m 1,8 km/h (1 Bft) 95,52 %
26.07.2016 03:00 17,9 C 16,3 C 15,3 C 88 % 1 lf 1019,3 hPa 0,0 l/m 0,00 h 0,00 h 5 W/m 0,9 km/h (0 Bft) 96,58 %
26.07.2016 04:00 17,1 C 15,6 C 14,7 C 90 % 1 lf 1019,1 hPa 0,0 l/m 0,00 h 0,00 h 5 W/m 0,8 km/h (0 Bft) 95,49 %
26.07.2016 05:00 16,4 C 15,9 C 14,9 C 91 % 1 lf 1019,4 hPa 0,0 l/m 0,00 h 0,00 h 7 W/m 3,4 km/h (1 Bft) 95,58 %
26.07.2016 06:00 16,3 C 16,4 C 15,5 C 92 % 1 lf 1019,4 hPa 0,0 l/m 0,80 h 0,00 h 47 W/m 1,0 km/h (0 Bft) 96,59 %
26.07.2016 07:00 17,1 C 18,7 C 17,3 C 94 % 5 lf 1019,6 hPa 0,0 l/m 0,63 h 0,00 h 128 W/m 3,4 km/h (1 Bft) 95,58 %
26.07.2016 08:00 18,0 C 20,5 C 18,2 C 92 % 15 lf 1020,0 hPa 0,0 l/m 0,50 h 0,00 h 184 W/m 5,8 km/h (2 Bft) 97,58 %
26.07.2016 09:00 19,0 C 22,8 C 19,6 C 87 % 7 lf 1020,2 hPa 0,0 l/m 0,43 h 0,00 h 240 W/m 8,1 km/h (2 Bft) 94,73 %
26.07.2016 10:00 20,4 C 24,5 C 22,3 C 81 % 2 lf 1020,4 hPa 0,0 l/m 0,40 h 0,00 h 302 W/m 6,4 km/h (2 Bft) 96,87 %
26.07.2016 11:00 21,4 C 25,4 C 23,4 C 76 % 1 lf 1020,3 hPa 0,0 l/m 0,33 h 0,00 h 351 W/m 6,7 km/h (2 Bft) 97,08 %
26.07.2016 12:00 22,4 C 25,7 C 24,1 C 67 % 0 lf 1020,2 hPa 0,0 l/m 0,07 h 0,00 h 297 W/m 6,2 km/h (2 Bft) 94,45 %
26.07.2016 13:00 22,4 C 23,7 C 22,6 C 67 % 0 lf 1020,1 hPa 0,0 l/m 0,00 h 0,00 h 191 W/m 4,9 km/h (1 Bft) 97,15 %
26.07.2016 14:00 22,3 C 23,6 C 23,0 C 69 % 0 lf 1019,9 hPa 0,0 l/m 0,00 h 0,00 h 212 W/m 6,8 km/h (2 Bft) 98,01 %
26.07.2016 15:00 22,9 C 25,1 C 25,2 C 68 % 0 lf 1019,5 hPa 0,0 l/m 0,23 h 0,00 h 337 W/m 7,3 km/h (2 Bft) 94,23 %
26.07.2016 16:00 24,0 C 28,0 C 27,0 C 64 % 0 lf 1019,3 hPa 0,0 l/m 0,73 h 0,00 h 403 W/m 5,8 km/h (2 Bft) 96,58 %
26.07.2016 17:00 24,1 C 25,2 C 25,0 C 65 % 0 lf 1019,1 hPa 0,0 l/m 0,03 h 0,00 h 237 W/m 8,4 km/h (2 Bft) 97,50 %
26.07.2016 18:00 23,6 C 23,9 C 22,4 C 68 % 0 lf 1018,8 hPa 0,0 l/m 0,00 h 0,00 h 129 W/m 5,5 km/h (1 Bft) 94,88 %
26.07.2016 19:00 22,9 C 22,8 C 19,8 C 71 % 0 lf 1018,8 hPa 0,0 l/m 0,00 h 0,00 h 101 W/m 5,2 km/h (1 Bft) 96,87 %
26.07.2016 20:00 22,0 C 21,5 C 19,6 C 73 % 1 lf 1018,6 hPa 0,0 l/m 0,00 h 0,00 h 48 W/m 4,9 km/h (1 Bft) 96,08 %
26.07.2016 21:00 21,0 C 19,9 C 17,7 C 76 % 3 lf 1018,6 hPa 0,0 l/m 0,00 h 0,00 h 10 W/m 5,1 km/h (1 Bft) 96,87 %
26.07.2016 22:00 19,9 C 19,3 C 17,1 C 79 % 3 lf 1018,7 hPa 0,0 l/m 0,00 h 0,00 h 5 W/m 6,0 km/h (2 Bft) 95,37 %
26.07.2016 23:00 19,4 C 18,6 C 16,9 C 82 % 6 lf 1018,6 hPa 0,0 l/m 0,00 h 0,00 h 5 W/m 4,3 km/h (1 Bft) 95,66 %
27.07.2016 00:00 18,8 C 17,8 C 16,1 C 84 % 12 lf 1018,5 hPa 0,0 l/m 0,00 h 0,00 h 5 W/m 1,5 km/h (1 Bft) 96,14 %
27.07.2016 01:00 17,9 C 17,0 C 15,1 C 87 % 15 lf 1018,2 hPa 0,0 l/m 0,00 h 0,00 h 5 W/m 2,1 km/h (1 Bft) 97,01 %
27.07.2016 02:00 17,2 C 16,4 C 14,7 C 90 % 15 lf 1017,9 hPa 0,0 l/m 0,00 h 0,00 h 5 W/m 3,9 km/h (1 Bft) 93,80 %
27.07.2016 03:00 16,5 C 15,6 C 13,9 C 91 % 15 lf 1017,3 hPa 0,0 l/m 0,00 h 0,00 h 5 W/m 2,5 km/h (1 Bft) 96,30 %
27.07.2016 04:00 15,9 C 15,1 C 13,8 C 92 % 15 lf 1017,0 hPa 0,0 l/m 0,00 h 0,00 h 5 W/m 3,8 km/h (1 Bft) 96,68 %
27.07.2016 05:00 15,6 C 15,0 C 13,4 C 93 % 15 lf 1016,8 hPa 0,0 l/m 0,00 h 0,00 h 6 W/m 4,9 km/h (1 Bft) 96,80 %
27.07.2016 06:00 15,2 C 14,9 C 13,6 C 94 % 15 lf 1016,9 hPa 0,0 l/m 0,23 h 0,00 h 36 W/m 6,3 km/h (2 Bft) 94,66 %
27.07.2016 07:00 15,1 C 15,8 C 14,3 C 94 % 15 lf 1017,0 hPa 0,0 l/m 0,67 h 0,00 h 135 W/m 9,2 km/h (2 Bft) 96,64 %
27.07.2016 08:00 16,3 C 19,4 C 16,1 C 94 % 5 lf 1017,2 hPa 0,0 l/m 1,00 h 0,00 h 321 W/m 17,5 km/h (3 Bft) 97,23 %
27.07.2016 09:00 18,5 C 25,1 C 18,5 C 85 % 0 lf 1017,2 hPa 0,0 l/m 0,97 h 0,00 h 476 W/m 15,9 km/h (3 Bft) 95,51 %
27.07.2016 10:00 20,5 C 27,1 C 24,6 C 76 % 0 lf 1017,1 hPa 0,0 l/m 0,90 h 0,00 h 626 W/m 16,9 km/h (3 Bft) 95,76 %
27.07.2016 11:00 22,0 C 29,6 C 26,5 C 68 % 0 lf 1017,0 hPa 0,0 l/m 1,00 h 0,00 h 780 W/m 23,3 km/h (4 Bft) 98,25 %
27.07.2016 12:00 22,9 C 30,1 C 27,5 C 64 % 0 lf 1016,8 hPa 0,0 l/m 0,87 h 0,00 h 767 W/m 21,7 km/h (4 Bft) 95,48 %
27.07.2016 13:00 24,0 C 29,5 C 25,9 C 62 % 0 lf 1016,3 hPa 0,0 l/m 0,77 h 0,00 h 732 W/m 20,3 km/h (4 Bft) 95,06 %
27.07.2016 14:00 24,2 C 28,2 C 27,3 C 62 % 0 lf 1015,9 hPa 0,0 l/m 0,50 h 0,00 h 546 W/m 21,7 km/h (4 Bft) 97,19 %
27.07.2016 15:00 24,2 C 29,2 C 30,7 C 63 % 0 lf 1015,7 hPa 0,0 l/m 0,90 h 0,00 h 654 W/m 26,0 km/h (4 Bft) 95,64 %
27.07.2016 16:00 24,4 C 26,8 C 27,7 C 63 % 0 lf 1015,4 hPa 0,0 l/m 0,60 h 0,00 h 428 W/m 21,6 km/h (4 Bft) 94,06 %
27.07.2016 17:00 23,5 C 25,6 C 24,3 C 64 % 0 lf 1015,4 hPa 0,0 l/m 0,60 h 0,00 h 377 W/m 23,6 km/h (4 Bft) 98,66 %
27.07.2016 18:00 23,4 C 24,2 C 23,4 C 65 % 0 lf 1015,1 hPa 0,0 l/m 0,27 h 0,00 h 229 W/m 20,6 km/h (4 Bft) 94,64 %
27.07.2016 19:00 22,6 C 22,8 C 21,9 C 66 % 0 lf 1015,2 hPa 0,0 l/m 0,00 h 0,00 h 88 W/m 18,7 km/h (3 Bft) 96,13 %
27.07.2016 20:00 21,9 C 21,8 C 20,7 C 70 % 0 lf 1015,6 hPa 0,0 l/m 0,00 h 0,00 h 33 W/m 13,4 km/h (3 Bft) 95,50 %
27.07.2016 21:00 21,0 C 20,5 C 19,3 C 73 % 0 lf 1015,9 hPa 0,0 l/m 0,00 h 0,00 h 9 W/m 12,5 km/h (3 Bft) 97,18 %
27.07.2016 22:00 20,4 C 20,0 C 18,9 C 75 % 0 lf 1015,9 hPa 0,0 l/m 0,00 h 0,00 h 0 W/m 8,7 km/h (2 Bft) 95,66 %
27.07.2016 23:00 20,2 C 20,0 C 18,9 C 77 % 0 lf 1015,9 hPa 0,0 l/m 0,00 h 0,00 h 0 W/m 9,6 km/h (2 Bft) 95,94 %
28.07.2016 00:00 20,0 C 19,6 C 18,4 C 78 % 0 lf 1015,9 hPa 0,0 l/m 0,00 h 0,00 h 0 W/m 6,4 km/h (2 Bft) 96,81 %
28.07.2016 01:00 19,6 C 18,7 C 17,4 C 81 % 10 lf 1015,8 hPa 0,0 l/m 0,00 h 0,33 h 5 W/m 9,5 km/h (2 Bft) 96,87 %
28.07.2016 02:00 18,9 C 18,4 C 17,2 C 86 % 6 lf 1015,7 hPa 0,0 l/m 0,00 h 0,00 h 5 W/m 11,4 km/h (2 Bft) 94,09 %
28.07.2016 03:00 18,5 C 17,3 C 16,2 C 90 % 15 lf 1015,4 hPa 0,4 l/m 0,00 h 0,47 h 5 W/m 9,5 km/h (2 Bft) 97,30 %
28.07.2016 04:00 18,0 C 17,2 C 16,1 C 93 % 15 lf 1015,2 hPa 0,0 l/m 0,00 h 0,33 h 5 W/m 4,1 km/h (1 Bft) 95,59 %
28.07.2016 05:00 17,8 C 17,2 C 16,1 C 94 % 15 lf 1015,0 hPa 0,0 l/m 0,00 h 0,00 h 5 W/m 6,0 km/h (2 Bft) 96,87 %
28.07.2016 06:00 17,6 C 17,2 C 16,1 C 95 % 15 lf 1014,7 hPa 0,0 l/m 0,00 h 0,00 h 14 W/m 8,4 km/h (2 Bft) 94,45 %
28.07.2016 07:00 17,6 C 17,2 C 16,1 C 96 % 15 lf 1014,6 hPa 0,6 l/m 0,00 h 0,33 h 41 W/m 8,2 km/h (2 Bft) 96,37 %
28.07.2016 08:00 17,7 C 17,3 C 16,5 C 97 % 15 lf 1014,5 hPa 0,0 l/m 0,00 h 0,30 h 74 W/m 10,6 km/h (2 Bft) 96,29 %
28.07.2016 09:00 17,8 C 17,9 C 17,1 C 97 % 15 lf 1014,5 hPa 0,0 l/m 0,00 h 0,33 h 112 W/m 11,0 km/h (2 Bft) 97,16 %
28.07.2016 10:00 18,2 C 18,2 C 17,4 C 97 % 15 lf 1014,5 hPa 1,6 l/m 0,00 h 0,33 h 168 W/m 13,7 km/h (3 Bft) 93,65 %
28.07.2016 11:00 19,4 C 21,3 C 21,0 C 96 % 6 lf 1014,5 hPa 0,0 l/m 0,50 h 0,00 h 391 W/m 15,2 km/h (3 Bft) 97,95 %
28.07.2016 12:00 20,9 C 23,6 C 22,8 C 89 % 0 lf 1014,3 hPa 0,0 l/m 0,27 h 0,00 h 379 W/m 14,9 km/h (3 Bft) 97,37 %
28.07.2016 13:00 21,2 C 23,3 C 22,6 C 86 % 0 lf 1014,2 hPa 0,0 l/m 0,23 h 0,00 h 321 W/m 16,2 km/h (3 Bft) 93,88 %
28.07.2016 14:00 22,5 C 27,0 C 25,8 C 80 % 0 lf 1013,7 hPa 0,0 l/m 0,90 h 0,00 h 540 W/m 17,3 km/h (3 Bft) 96,56 %
28.07.2016 15:00 24,1 C 28,5 C 28,6 C 73 % 0 lf 1013,2 hPa 0,0 l/m 0,83 h 0,00 h 572 W/m 21,2 km/h (4 Bft) 98,08 %
28.07.2016 16:00 24,9 C 28,7 C 28,5 C 68 % 0 lf 1012,6 hPa 0,0 l/m 0,60 h 0,00 h 477 W/m 19,3 km/h (3 Bft) 92,27 %
28.07.2016 17:00 24,9 C 27,3 C 25,5 C 67 % 0 lf 1012,3 hPa 0,0 l/m 0,63 h 0,00 h 377 W/m 17,6 km/h (3 Bft) 98,28 %
28.07.2016 18:00 24,1 C 25,1 C 23,5 C 67 % 0 lf 1012,3 hPa 0,0 l/m 0,27 h 0,00 h 234 W/m 20,6 km/h (4 Bft) 95,44 %
28.07.2016 19:00 23,6 C 24,1 C 22,7 C 66 % 0 lf 1012,1 hPa 0,0 l/m 0,93 h 0,00 h 189 W/m 18,5 km/h (3 Bft) 95,87 %
28.07.2016 20:00 22,6 C 22,0 C 20,0 C 65 % 0 lf 1012,3 hPa 0,0 l/m 0,13 h 0,00 h 44 W/m 14,2 km/h (3 Bft) 95,59 %
28.07.2016 21:00 21,4 C 20,7 C 18,6 C 69 % 0 lf 1012,7 hPa 0,0 l/m 0,20 h 0,00 h 14 W/m 6,9 km/h (2 Bft) 96,36 %
28.07.2016 22:00 20,5 C 19,2 C 17,2 C 72 % 0 lf 1012,8 hPa 0,0 l/m 0,00 h 0,00 h 0 W/m 5,4 km/h (1 Bft) 96,36 %
28.07.2016 23:00 19,2 C 17,8 C 15,8 C 77 % 0 lf 1013,0 hPa 0,0 l/m 0,00 h 0,00 h 0 W/m 5,2 km/h (1 Bft) 95,87 %
29.07.2016 00:00 18,1 C 17,6 C 15,8 C 80 % 0 lf 1013,1 hPa 0,0 l/m 0,00 h 0,00 h 0 W/m 6,9 km/h (2 Bft) 95,07 %
29.07.2016 01:00 17,8 C 17,7 C 16,2 C 80 % 2 lf 1013,1 hPa 0,0 l/m 0,00 h 0,20 h 0 W/m 8,3 km/h (2 Bft) 97,01 %
29.07.2016 02:00 17,6 C 16,5 C 15,2 C 83 % 7 lf 1013,0 hPa 0,8 l/m 0,00 h 0,47 h 0 W/m 11,7 km/h (2 Bft) 95,88 %
29.07.2016 03:00 16,5 C 15,1 C 14,3 C 91 % 15 lf 1012,9 hPa 0,0 l/m 0,00 h 0,03 h 5 W/m 11,8 km/h (2 Bft) 95,30 %
29.07.2016 04:00 15,9 C 15,5 C 14,4 C 94 % 15 lf 1012,6 hPa 0,0 l/m 0,00 h 0,00 h 5 W/m 11,2 km/h (2 Bft) 95,87 %
29.07.2016 05:00 16,0 C 15,6 C 14,7 C 96 % 15 lf 1012,4 hPa 0,0 l/m 0,00 h 0,00 h 5 W/m 7,6 km/h (2 Bft) 97,59 %
29.07.2016 06:00 16,2 C 16,0 C 15,1 C 97 % 15 lf 1012,3 hPa 0,0 l/m 0,00 h 0,00 h 24 W/m 8,1 km/h (2 Bft) 96,02 %
29.07.2016 07:00 16,5 C 17,3 C 15,7 C 97 % 12 lf 1012,1 hPa 0,0 l/m 0,60 h 0,00 h 158 W/m 10,7 km/h (2 Bft) 94,73 %
29.07.2016 08:00 17,5 C 19,3 C 17,7 C 96 % 1 lf 1012,1 hPa 0,0 l/m 0,27 h 0,00 h 157 W/m 11,7 km/h (2 Bft) 96,23 %
29.07.2016 09:00 18,3 C 18,4 C 17,4 C 92 % 6 lf 1012,0 hPa 0,0 l/m 0,00 h 0,13 h 110 W/m 16,2 km/h (3 Bft) 98,22 %
29.07.2016 10:00 18,2 C 18,5 C 17,5 C 94 % 8 lf 1012,0 hPa 0,0 l/m 0,00 h 0,03 h 166 W/m 15,5 km/h (3 Bft) 94,52 %
29.07.2016 11:00 19,2 C 22,1 C 20,9 C 92 % 0 lf 1011,8 hPa 0,0 l/m 0,47 h 0,00 h 313 W/m 16,2 km/h (3 Bft) 95,44 %
29.07.2016 12:00 21,3 C 24,6 C 23,4 C 84 % 0 lf 1011,5 hPa 0,0 l/m 0,37 h 0,00 h 388 W/m 16,9 km/h (3 Bft) 97,16 %
29.07.2016 13:00 21,5 C 21,7 C 20,4 C 80 % 5 lf 1011,4 hPa 0,2 l/m 0,00 h 0,37 h 190 W/m 18,5 km/h (3 Bft) 95,87 %
29.07.2016 14:00 21,0 C 24,2 C 23,1 C 85 % 1 lf 1011,3 hPa 0,0 l/m 0,43 h 0,07 h 428 W/m 17,2 km/h (3 Bft) 94,52 %
29.07.2016 15:00 23,1 C 27,9 C 28,3 C 75 % 0 lf 1011,0 hPa 0,0 l/m 0,90 h 0,00 h 584 W/m 23,4 km/h (4 Bft) 98,57 %
29.07.2016 16:00 23,9 C 26,3 C 25,5 C 72 % 3 lf 1010,8 hPa 0,0 l/m 0,40 h 0,30 h 342 W/m 19,1 km/h (3 Bft) 95,44 %
29.07.2016 17:00 24,3 C 27,8 C 24,6 C 69 % 0 lf 1010,6 hPa 0,0 l/m 0,90 h 0,00 h 519 W/m 23,2 km/h (4 Bft) 95,66 %
29.07.2016 18:00 24,1 C 25,1 C 23,5 C 67 % 0 lf 1010,6 hPa 0,0 l/m 0,83 h 0,00 h 384 W/m 22,2 km/h (4 Bft) 97,22 %
29.07.2016 19:00 23,2 C 23,5 C 21,7 C 69 % 0 lf 1010,8 hPa 0,0 l/m 0,97 h 0,00 h 173 W/m 17,9 km/h (3 Bft) 96,24 %
29.07.2016 20:00 21,9 C 21,4 C 19,6 C 71 % 0 lf 1011,0 hPa 0,0 l/m 0,77 h 0,00 h 63 W/m 12,0 km/h (2 Bft) 94,64 %
29.07.2016 21:00 20,6 C 19,3 C 17,3 C 75 % 0 lf 1011,3 hPa 0,0 l/m 0,23 h 0,00 h 12 W/m 6,2 km/h (2 Bft) 97,27 %
29.07.2016 22:00 19,2 C 17,8 C 15,8 C 79 % 0 lf 1011,6 hPa 0,0 l/m 0,00 h 0,00 h 5 W/m 5,3 km/h (1 Bft) 94,47 %
29.07.2016 23:00 18,1 C 16,7 C 14,9 C 82 % 1 lf 1011,7 hPa 0,0 l/m 0,00 h 0,00 h 5 W/m 3,4 km/h (1 Bft) 97,73 %
30.07.2016 00:00 17,2 C 16,2 C 14,6 C 85 % 1 lf 1011,8 hPa 0,0 l/m 0,00 h 0,00 h 5 W/m 0,7 km/h (0 Bft) 94,34 %
30.07.2016 01:00 16,7 C 16,4 C 14,7 C 88 % 1 lf 1011,8 hPa 0,0 l/m 0,00 h 0,00 h 5 W/m 5,7 km/h (1 Bft) 95,45 %
30.07.2016 02:00 16,5 C 16,4 C 14,7 C 89 % 1 lf 1011,8 hPa 0,0 l/m 0,00 h 0,00 h 5 W/m 7,6 km/h (2 Bft) 97,30 %
30.07.2016 03:00 16,3 C 16,1 C 14,7 C 88 % 1 lf 1011,6 hPa 0,0 l/m 0,00 h 0,00 h 5 W/m 7,3 km/h (2 Bft) 96,87 %
30.07.2016 04:00 16,2 C 15,8 C 14,5 C 88 % 1 lf 1011,5 hPa 0,0 l/m 0,00 h 0,00 h 5 W/m 6,4 km/h (2 Bft) 93,23 %
30.07.2016 05:00 16,0 C 15,8 C 14,4 C 89 % 1 lf 1011,5 hPa 0,0 l/m 0,00 h 0,00 h 6 W/m 9,2 km/h (2 Bft) 98,73 %
30.07.2016 06:00 15,9 C 15,9 C 14,5 C 89 % 1 lf 1011,7 hPa 0,0 l/m 0,10 h 0,00 h 29 W/m 10,8 km/h (2 Bft) 96,43 %
30.07.2016 07:00 16,2 C 16,9 C 15,5 C 89 % 0 lf 1011,9 hPa 0,0 l/m 0,87 h 0,00 h 127 W/m 16,4 km/h (3 Bft) 94,36 %
30.07.2016 08:00 16,7 C 18,0 C 16,7 C 87 % 0 lf 1012,0 hPa 0,0 l/m 0,53 h 0,00 h 223 W/m 19,9 km/h (4 Bft) 96,26 %
30.07.2016 09:00 17,9 C 23,2 C 18,6 C 84 % 0 lf 1012,4 hPa 0,0 l/m 0,67 h 0,00 h 458 W/m 19,7 km/h (3 Bft) 96,88 %
30.07.2016 10:00 20,1 C 26,6 C 23,4 C 79 % 0 lf 1012,5 hPa 0,0 l/m 0,67 h 0,00 h 516 W/m 14,0 km/h (3 Bft) 95,30 %
30.07.2016 11:00 20,7 C 24,9 C 23,2 C 77 % 0 lf 1012,5 hPa 0,0 l/m 0,50 h 0,00 h 379 W/m 14,5 km/h (3 Bft) 95,67 %
30.07.2016 12:00 21,8 C 28,4 C 26,0 C 74 % 0 lf 1012,6 hPa 0,0 l/m 0,87 h 0,00 h 637 W/m 14,5 km/h (3 Bft) 96,00 %
30.07.2016 13:00 22,5 C 25,7 C 24,8 C 72 % 0 lf 1012,6 hPa 0,0 l/m 0,60 h 0,00 h 446 W/m 15,1 km/h (3 Bft) 97,09 %
30.07.2016 14:00 22,9 C 28,5 C 28,2 C 71 % 0 lf 1012,5 hPa 0,0 l/m 0,80 h 0,00 h 646 W/m 14,6 km/h (3 Bft) 93,26 %
30.07.2016 15:00 24,8 C 29,9 C 30,9 C 66 % 0 lf 1012,2 hPa 0,0 l/m 1,00 h 0,00 h 677 W/m 15,7 km/h (3 Bft) 97,42 %
30.07.2016 16:00 24,7 C 28,6 C 28,1 C 64 % 0 lf 1012,1 hPa 0,0 l/m 1,00 h 0,00 h 479 W/m 16,3 km/h (3 Bft) 96,39 %
30.07.2016 17:00 24,4 C 27,4 C 24,8 C 63 % 0 lf 1011,9 hPa 0,0 l/m 0,77 h 0,00 h 397 W/m 16,0 km/h (3 Bft) 94,39 %
30.07.2016 18:00 23,5 C 23,8 C 22,9 C 66 % 0 lf 1011,9 hPa 0,0 l/m 0,17 h 0,00 h 171 W/m 13,5 km/h (3 Bft) 97,03 %
30.07.2016 19:00 22,1 C 22,2 C 21,1 C 69 % 0 lf 1011,7 hPa 0,0 l/m 0,23 h 0,00 h 96 W/m 13,8 km/h (3 Bft) 97,44 %
30.07.2016 20:00 21,5 C 21,0 C 19,8 C 73 % 0 lf 1011,9 hPa 0,0 l/m 0,43 h 0,00 h 50 W/m 10,3 km/h (2 Bft) 93,89 %
30.07.2016 21:00 20,2 C 18,7 C 17,5 C 78 % 0 lf 1012,1 hPa 0,0 l/m 0,20 h 0,00 h 13 W/m 4,3 km/h (1 Bft) 97,06 %
30.07.2016 22:00 19,0 C 17,8 C 16,6 C 83 % 4 lf 1012,3 hPa 0,0 l/m 0,00 h 0,17 h 5 W/m 3,0 km/h (1 Bft) 95,34 %
30.07.2016 23:00 18,5 C 17,7 C 16,2 C 86 % 2 lf 1012,2 hPa 0,0 l/m 0,00 h 0,00 h 5 W/m 0,0 km/h (0 Bft) 96,52 %
31.07.2016 00:00 18,2 C 17,7 C 16,7 C 88 % 1 lf 1012,2 hPa 0,0 l/m 0,00 h 0,00 h 5 W/m 0,0 km/h (0 Bft) 96,18 %
31.07.2016 01:00 17,9 C 16,9 C 15,9 C 89 % 1 lf 1012,1 hPa 0,0 l/m 0,00 h 0,00 h 5 W/m 0,0 km/h (0 Bft) 94,94 %
31.07.2016 02:00 17,4 C 16,8 C 15,8 C 91 % 1 lf 1011,6 hPa 0,0 l/m 0,00 h 0,00 h 5 W/m 2,7 km/h (1 Bft) 95,65 %
31.07.2016 03:00 16,9 C 16,3 C 15,0 C 91 % 1 lf 1011,8 hPa 0,0 l/m 0,00 h 0,00 h 5 W/m 3,8 km/h (1 Bft) 98,57 %
31.07.2016 04:00 16,5 C 15,9 C 14,6 C 92 % 2 lf 1011,9 hPa 0,0 l/m 0,00 h 0,00 h 5 W/m 2,8 km/h (1 Bft) 93,62 %
31.07.2016 05:00 16,1 C 15,1 C 13,9 C 92 % 2 lf 1011,5 hPa 0,0 l/m 0,00 h 0,00 h 6 W/m 1,7 km/h (1 Bft) 96,73 %
31.07.2016 06:00 15,7 C 15,5 C 14,3 C 92 % 3 lf 1011,5 hPa 0,0 l/m 0,30 h 0,00 h 25 W/m 4,6 km/h (1 Bft) 97,66 %
31.07.2016 07:00 16,2 C 16,8 C 16,0 C 95 % 1 lf 1012,1 hPa 0,0 l/m 0,00 h 0,00 h 49 W/m 7,1 km/h (2 Bft) 95,45 %
31.07.2016 08:00 16,9 C 18,2 C 17,1 C 95 % 1 lf 1012,2 hPa 0,0 l/m 0,03 h 0,00 h 105 W/m 7,1 km/h (2 Bft) 94,61 %
31.07.2016 09:00 18,2 C 22,7 C 19,9 C 91 % 0 lf 1012,4 hPa 0,0 l/m 0,93 h 0,00 h 324 W/m 11,7 km/h (2 Bft) 98,15 %
31.07.2016 10:00 19,2 C 21,1 C 19,1 C 84 % 5 lf 1012,6 hPa 0,0 l/m 0,13 h 0,20 h 221 W/m 13,9 km/h (3 Bft) 94,87 %
31.07.2016 11:00 18,9 C 19,8 C 18,1 C 83 % 8 lf 1013,0 hPa 0,6 l/m 0,00 h 0,57 h 177 W/m 12,1 km/h (2 Bft) 96,80 %
31.07.2016 12:00 18,4 C 17,2 C 16,2 C 89 % 15 lf 1013,4 hPa 0,6 l/m 0,00 h 0,73 h 109 W/m 4,2 km/h (1 Bft) 95,09 %
31.07.2016 13:00 18,2 C 17,7 C 16,5 C 91 % 15 lf 1013,7 hPa 1,0 l/m 0,00 h 0,63 h 140 W/m 6,2 km/h (2 Bft) 96,37 %
31.07.2016 14:00 18,4 C 19,2 C 19,4 C 93 % 12 lf 1013,7 hPa 0,2 l/m 0,40 h 0,23 h 379 W/m 9,0 km/h (2 Bft) 96,72 %
31.07.2016 15:00 18,8 C 19,2 C 17,9 C 86 % 7 lf 1013,8 hPa 1,2 l/m 0,13 h 0,27 h 214 W/m 14,9 km/h (3 Bft) 95,09 %
31.07.2016 16:00 18,1 C 22,2 C 19,3 C 85 % 7 lf 1014,2 hPa 0,0 l/m 0,90 h 0,00 h 426 W/m 13,6 km/h (3 Bft) 95,31 %
31.07.2016 17:00 20,1 C 24,1 C 20,7 C 74 % 0 lf 1014,5 hPa 0,0 l/m 0,63 h 0,00 h 414 W/m 15,4 km/h (3 Bft) 98,15 %
31.07.2016 18:00 20,3 C 21,1 C 19,3 C 72 % 0 lf 1014,7 hPa 0,0 l/m 0,23 h 0,00 h 176 W/m 14,4 km/h (3 Bft) 94,36 %
31.07.2016 19:00 19,7 C 20,3 C 18,5 C 73 % 0 lf 1015,2 hPa 0,0 l/m 0,60 h 0,00 h 160 W/m 17,5 km/h (3 Bft) 96,73 %
31.07.2016 20:00 19,1 C 18,7 C 16,8 C 71 % 0 lf 1015,7 hPa 0,0 l/m 0,70 h 0,00 h 64 W/m 14,0 km/h (3 Bft) 96,16 %
31.07.2016 21:00 17,8 C 15,6 C 13,6 C 74 % 0 lf 1016,5 hPa 0,0 l/m 0,17 h 0,00 h 14 W/m 4,7 km/h (1 Bft) 97,16 %
31.07.2016 22:00 15,8 C 13,2 C 11,9 C 80 % 1 lf 1017,0 hPa 0,0 l/m 0,00 h 0,00 h 5 W/m 1,1 km/h (1 Bft) 93,95 %
31.07.2016 23:00 14,3 C 12,2 C 11,1 C 84 % 3 lf 1017,3 hPa 0,0 l/m 0,00 h 0,00 h 5 W/m 1,7 km/h (1 Bft) 96,58 %
Min-Datum _ 31.07.16 31.07.16 31.07.16 27.07.16 25.07.16 29.07.16 - - - - 25.07.16 26.07.16
_ Min-Zeit 23:54 23:48 23:52 13:32 00:00 17:14 - - - - 00:00 00:02
Minimum _ 13,8 C 11,7 C 10,6 C 60 % 0 lf 1010,4 hPa - - - - 0,0 km/h (0 Bft) 18,18 %
Max-Datum _ 25.07.16 25.07.16 25.07.16 28.07.16 26.07.16 26.07.16 28.07.16 25.07.16 25.07.16 25.07.16 27.07.16 25.07.16
_ Max-Zeit 14:24 12:08 15:58 11:16 07:40 10:32 10:14 06:12 14:50 13:34 11:28 00:30
Maximum _ 27,3 C 35,6 C 36,7 C 98 % 15 lf 1020,5 hPa 1,6 l/m 0,03 h 0,03 h 1356 W/m 33,5 km/h
W-SW (5 Bft)
100,00 %
Durchschnitt _ 20,1 C 21,1 C 19,7 C 81 % 3 lf 1015,1 hPa #7,2 l/m #51:06 h #6:56 h 209 W/m 10,4 km/h (2 Bft) 96,08 %
© 2016 W. Hausmann